sensor_id;sensor_type;location;lat;lon;timestamp;temperature;humidity
43099;DHT22;28715;51.988;6.020;2023-08-17T00:01:48;20.40;94.70
43099;DHT22;28715;51.988;6.020;2023-08-17T00:04:14;20.30;94.60
43099;DHT22;28715;51.988;6.020;2023-08-17T00:06:39;20.30;94.60
43099;DHT22;28715;51.988;6.020;2023-08-17T00:09:05;20.30;94.70
43099;DHT22;28715;51.988;6.020;2023-08-17T00:11:32;20.30;94.60
43099;DHT22;28715;51.988;6.020;2023-08-17T00:13:57;20.30;94.60
43099;DHT22;28715;51.988;6.020;2023-08-17T00:16:23;20.20;94.60
43099;DHT22;28715;51.988;6.020;2023-08-17T00:18:49;20.20;94.60
43099;DHT22;28715;51.988;6.020;2023-08-17T00:21:14;20.20;94.60
43099;DHT22;28715;51.988;6.020;2023-08-17T00:23:40;20.20;94.60
43099;DHT22;28715;51.988;6.020;2023-08-17T00:26:05;20.20;94.70
43099;DHT22;28715;51.988;6.020;2023-08-17T00:28:31;20.20;94.70
43099;DHT22;28715;51.988;6.020;2023-08-17T00:30:57;20.10;94.60
43099;DHT22;28715;51.988;6.020;2023-08-17T00:33:22;20.10;94.70
43099;DHT22;28715;51.988;6.020;2023-08-17T00:35:48;20.10;94.60
43099;DHT22;28715;51.988;6.020;2023-08-17T00:38:13;20.10;94.70
43099;DHT22;28715;51.988;6.020;2023-08-17T00:40:39;20.10;94.80
43099;DHT22;28715;51.988;6.020;2023-08-17T00:43:04;20.10;94.70
43099;DHT22;28715;51.988;6.020;2023-08-17T00:45:30;20.10;94.60
43099;DHT22;28715;51.988;6.020;2023-08-17T00:47:56;20.10;94.70
43099;DHT22;28715;51.988;6.020;2023-08-17T00:50:22;20.00;94.60
43099;DHT22;28715;51.988;6.020;2023-08-17T00:52:48;20.00;94.60
43099;DHT22;28715;51.988;6.020;2023-08-17T00:55:14;20.00;94.70
43099;DHT22;28715;51.988;6.020;2023-08-17T00:57:39;19.90;94.80
43099;DHT22;28715;51.988;6.020;2023-08-17T01:00:06;19.90;94.80
43099;DHT22;28715;51.988;6.020;2023-08-17T01:02:32;19.90;95.00
43099;DHT22;28715;51.988;6.020;2023-08-17T01:04:58;19.90;95.10
43099;DHT22;28715;51.988;6.020;2023-08-17T01:07:23;19.90;95.10
43099;DHT22;28715;51.988;6.020;2023-08-17T01:09:49;19.90;95.10
43099;DHT22;28715;51.988;6.020;2023-08-17T01:12:20;19.80;95.00
43099;DHT22;28715;51.988;6.020;2023-08-17T01:14:58;19.80;95.10
43099;DHT22;28715;51.988;6.020;2023-08-17T01:17:26;19.80;95.00
43099;DHT22;28715;51.988;6.020;2023-08-17T01:19:53;19.80;95.10
43099;DHT22;28715;51.988;6.020;2023-08-17T01:22:20;19.80;95.30
43099;DHT22;28715;51.988;6.020;2023-08-17T01:24:46;19.70;95.60
43099;DHT22;28715;51.988;6.020;2023-08-17T01:27:12;19.80;95.30
43099;DHT22;28715;51.988;6.020;2023-08-17T01:29:37;19.80;95.20
43099;DHT22;28715;51.988;6.020;2023-08-17T01:32:04;19.80;95.10
43099;DHT22;28715;51.988;6.020;2023-08-17T01:34:33;19.80;95.20
43099;DHT22;28715;51.988;6.020;2023-08-17T01:37:00;19.80;95.10
43099;DHT22;28715;51.988;6.020;2023-08-17T01:39:33;19.80;95.00
43099;DHT22;28715;51.988;6.020;2023-08-17T01:41:59;19.80;95.20
43099;DHT22;28715;51.988;6.020;2023-08-17T01:44:25;19.80;95.10
43099;DHT22;28715;51.988;6.020;2023-08-17T01:46:51;19.70;95.20
43099;DHT22;28715;51.988;6.020;2023-08-17T01:49:16;19.70;95.20
43099;DHT22;28715;51.988;6.020;2023-08-17T01:51:42;19.60;95.30
43099;DHT22;28715;51.988;6.020;2023-08-17T01:54:07;19.60;95.50
43099;DHT22;28715;51.988;6.020;2023-08-17T01:56:33;19.60;95.60
43099;DHT22;28715;51.988;6.020;2023-08-17T01:58:58;19.60;95.60
43099;DHT22;28715;51.988;6.020;2023-08-17T02:01:24;19.50;95.70
43099;DHT22;28715;51.988;6.020;2023-08-17T02:03:51;19.50;95.70
43099;DHT22;28715;51.988;6.020;2023-08-17T02:06:16;19.50;95.80
43099;DHT22;28715;51.988;6.020;2023-08-17T02:08:42;19.50;95.80
43099;DHT22;28715;51.988;6.020;2023-08-17T02:11:07;19.50;95.70
43099;DHT22;28715;51.988;6.020;2023-08-17T02:13:34;19.50;95.60
43099;DHT22;28715;51.988;6.020;2023-08-17T02:16:01;19.50;95.70
43099;DHT22;28715;51.988;6.020;2023-08-17T02:18:27;19.50;95.70
43099;DHT22;28715;51.988;6.020;2023-08-17T02:20:56;19.50;95.70
43099;DHT22;28715;51.988;6.020;2023-08-17T02:23:21;19.40;95.90
43099;DHT22;28715;51.988;6.020;2023-08-17T02:25:47;19.40;95.80
43099;DHT22;28715;51.988;6.020;2023-08-17T02:28:12;19.40;95.80
43099;DHT22;28715;51.988;6.020;2023-08-17T02:30:38;19.40;95.80
43099;DHT22;28715;51.988;6.020;2023-08-17T02:33:03;19.40;95.80
43099;DHT22;28715;51.988;6.020;2023-08-17T02:35:29;19.40;95.90
43099;DHT22;28715;51.988;6.020;2023-08-17T02:37:55;19.40;96.10
43099;DHT22;28715;51.988;6.020;2023-08-17T02:40:21;19.40;95.70
43099;DHT22;28715;51.988;6.020;2023-08-17T02:42:46;19.30;95.80
43099;DHT22;28715;51.988;6.020;2023-08-17T02:45:12;19.30;95.80
43099;DHT22;28715;51.988;6.020;2023-08-17T02:47:37;19.30;95.80
43099;DHT22;28715;51.988;6.020;2023-08-17T02:50:03;19.30;95.80
43099;DHT22;28715;51.988;6.020;2023-08-17T02:52:28;19.30;95.90
43099;DHT22;28715;51.988;6.020;2023-08-17T02:54:54;19.30;96.00
43099;DHT22;28715;51.988;6.020;2023-08-17T02:57:19;19.30;96.00
43099;DHT22;28715;51.988;6.020;2023-08-17T02:59:45;19.20;96.00
43099;DHT22;28715;51.988;6.020;2023-08-17T03:02:11;19.20;96.00
43099;DHT22;28715;51.988;6.020;2023-08-17T03:04:36;19.20;96.00
43099;DHT22;28715;51.988;6.020;2023-08-17T03:07:02;19.20;96.10
43099;DHT22;28715;51.988;6.020;2023-08-17T03:09:27;19.10;96.10
43099;DHT22;28715;51.988;6.020;2023-08-17T03:11:53;19.10;96.20
43099;DHT22;28715;51.988;6.020;2023-08-17T03:14:18;19.10;96.20
43099;DHT22;28715;51.988;6.020;2023-08-17T03:16:44;19.00;96.30
43099;DHT22;28715;51.988;6.020;2023-08-17T03:19:09;19.00;96.20
43099;DHT22;28715;51.988;6.020;2023-08-17T03:21:36;19.00;96.20
43099;DHT22;28715;51.988;6.020;2023-08-17T03:24:02;19.00;96.30
43099;DHT22;28715;51.988;6.020;2023-08-17T03:26:27;19.00;96.30
43099;DHT22;28715;51.988;6.020;2023-08-17T03:28:53;18.90;96.30
43099;DHT22;28715;51.988;6.020;2023-08-17T03:31:20;19.00;96.30
43099;DHT22;28715;51.988;6.020;2023-08-17T03:33:45;18.90;96.30
43099;DHT22;28715;51.988;6.020;2023-08-17T03:36:11;18.90;96.40
43099;DHT22;28715;51.988;6.020;2023-08-17T03:38:36;18.80;96.40
43099;DHT22;28715;51.988;6.020;2023-08-17T03:41:04;18.80;96.40
43099;DHT22;28715;51.988;6.020;2023-08-17T03:43:30;18.80;96.50
43099;DHT22;28715;51.988;6.020;2023-08-17T03:45:56;18.80;96.80
43099;DHT22;28715;51.988;6.020;2023-08-17T03:48:21;18.80;96.50
43099;DHT22;28715;51.988;6.020;2023-08-17T03:50:54;18.80;96.60
43099;DHT22;28715;51.988;6.020;2023-08-17T03:53:19;18.80;96.70
43099;DHT22;28715;51.988;6.020;2023-08-17T03:55:46;18.80;96.70
43099;DHT22;28715;51.988;6.020;2023-08-17T03:58:12;18.80;96.70
43099;DHT22;28715;51.988;6.020;2023-08-17T04:00:37;18.80;96.60
43099;DHT22;28715;51.988;6.020;2023-08-17T04:03:04;18.80;96.70
43099;DHT22;28715;51.988;6.020;2023-08-17T04:05:29;18.80;96.80
43099;DHT22;28715;51.988;6.020;2023-08-17T04:07:55;18.80;96.70
43099;DHT22;28715;51.988;6.020;2023-08-17T04:10:21;18.80;96.60
43099;DHT22;28715;51.988;6.020;2023-08-17T04:12:46;18.70;96.60
43099;DHT22;28715;51.988;6.020;2023-08-17T04:15:12;18.70;96.60
43099;DHT22;28715;51.988;6.020;2023-08-17T04:17:37;18.70;96.60
43099;DHT22;28715;51.988;6.020;2023-08-17T04:20:03;18.70;96.60
43099;DHT22;28715;51.988;6.020;2023-08-17T04:22:30;18.70;96.70
43099;DHT22;28715;51.988;6.020;2023-08-17T04:24:55;18.60;96.80
43099;DHT22;28715;51.988;6.020;2023-08-17T04:27:21;18.60;96.70
43099;DHT22;28715;51.988;6.020;2023-08-17T04:29:46;18.60;96.80
43099;DHT22;28715;51.988;6.020;2023-08-17T04:32:15;18.60;96.80
43099;DHT22;28715;51.988;6.020;2023-08-17T04:34:41;18.60;96.80
43099;DHT22;28715;51.988;6.020;2023-08-17T04:37:07;18.60;96.80
43099;DHT22;28715;51.988;6.020;2023-08-17T04:39:32;18.60;96.90
43099;DHT22;28715;51.988;6.020;2023-08-17T04:41:58;18.60;96.90
43099;DHT22;28715;51.988;6.020;2023-08-17T04:44:23;18.50;97.00
43099;DHT22;28715;51.988;6.020;2023-08-17T04:46:49;18.50;97.10
43099;DHT22;28715;51.988;6.020;2023-08-17T04:49:14;18.50;97.10
43099;DHT22;28715;51.988;6.020;2023-08-17T04:51:40;18.50;97.10
43099;DHT22;28715;51.988;6.020;2023-08-17T04:54:05;18.50;97.10
43099;DHT22;28715;51.988;6.020;2023-08-17T04:56:30;18.50;97.10
43099;DHT22;28715;51.988;6.020;2023-08-17T04:58:56;18.60;97.10
43099;DHT22;28715;51.988;6.020;2023-08-17T05:01:21;18.60;97.10
43099;DHT22;28715;51.988;6.020;2023-08-17T05:03:47;18.50;97.10
43099;DHT22;28715;51.988;6.020;2023-08-17T05:06:13;18.60;97.20
43099;DHT22;28715;51.988;6.020;2023-08-17T05:08:38;18.60;97.30
43099;DHT22;28715;51.988;6.020;2023-08-17T05:11:04;18.60;97.00
43099;DHT22;28715;51.988;6.020;2023-08-17T05:13:29;18.60;97.10
43099;DHT22;28715;51.988;6.020;2023-08-17T05:15:55;18.60;97.10
43099;DHT22;28715;51.988;6.020;2023-08-17T05:18:20;18.70;97.00
43099;DHT22;28715;51.988;6.020;2023-08-17T05:20:46;18.70;97.00
43099;DHT22;28715;51.988;6.020;2023-08-17T05:23:11;18.70;97.00
43099;DHT22;28715;51.988;6.020;2023-08-17T05:25:37;18.70;96.90
43099;DHT22;28715;51.988;6.020;2023-08-17T05:28:02;18.70;96.80
43099;DHT22;28715;51.988;6.020;2023-08-17T05:30:28;18.70;96.90
43099;DHT22;28715;51.988;6.020;2023-08-17T05:32:53;18.80;96.90
43099;DHT22;28715;51.988;6.020;2023-08-17T05:35:19;18.80;96.80
43099;DHT22;28715;51.988;6.020;2023-08-17T05:37:44;18.80;96.70
43099;DHT22;28715;51.988;6.020;2023-08-17T05:40:10;18.80;96.70
43099;DHT22;28715;51.988;6.020;2023-08-17T05:42:36;18.80;96.60
43099;DHT22;28715;51.988;6.020;2023-08-17T05:45:01;18.80;96.70
43099;DHT22;28715;51.988;6.020;2023-08-17T05:47:27;18.80;96.60
43099;DHT22;28715;51.988;6.020;2023-08-17T05:49:52;18.80;96.60
43099;DHT22;28715;51.988;6.020;2023-08-17T05:52:18;18.80;96.70
43099;DHT22;28715;51.988;6.020;2023-08-17T05:54:43;18.80;96.60
43099;DHT22;28715;51.988;6.020;2023-08-17T05:57:09;18.80;96.60
43099;DHT22;28715;51.988;6.020;2023-08-17T05:59:35;18.80;96.60
43099;DHT22;28715;51.988;6.020;2023-08-17T06:02:00;18.80;96.60
43099;DHT22;28715;51.988;6.020;2023-08-17T06:04:26;18.80;96.70
43099;DHT22;28715;51.988;6.020;2023-08-17T06:06:51;18.70;96.60
43099;DHT22;28715;51.988;6.020;2023-08-17T06:09:17;18.70;96.80
43099;DHT22;28715;51.988;6.020;2023-08-17T06:11:42;18.70;96.80
43099;DHT22;28715;51.988;6.020;2023-08-17T06:14:08;18.80;96.80
43099;DHT22;28715;51.988;6.020;2023-08-17T06:16:33;18.80;96.80
43099;DHT22;28715;51.988;6.020;2023-08-17T06:18:59;18.80;96.80
43099;DHT22;28715;51.988;6.020;2023-08-17T06:21:24;18.90;96.90
43099;DHT22;28715;51.988;6.020;2023-08-17T06:23:50;18.90;96.90
43099;DHT22;28715;51.988;6.020;2023-08-17T06:26:15;18.90;96.80
43099;DHT22;28715;51.988;6.020;2023-08-17T06:28:41;19.00;96.80
43099;DHT22;28715;51.988;6.020;2023-08-17T06:31:06;19.00;96.80
43099;DHT22;28715;51.988;6.020;2023-08-17T06:33:32;19.10;96.70
43099;DHT22;28715;51.988;6.020;2023-08-17T06:35:57;19.10;96.70
43099;DHT22;28715;51.988;6.020;2023-08-17T06:38:23;19.20;96.70
43099;DHT22;28715;51.988;6.020;2023-08-17T06:40:48;19.20;96.80
43099;DHT22;28715;51.988;6.020;2023-08-17T06:43:14;19.30;96.80
43099;DHT22;28715;51.988;6.020;2023-08-17T06:45:39;19.30;96.50
43099;DHT22;28715;51.988;6.020;2023-08-17T06:48:05;19.40;96.40
43099;DHT22;28715;51.988;6.020;2023-08-17T06:50:31;19.40;96.40
43099;DHT22;28715;51.988;6.020;2023-08-17T06:52:56;19.40;96.30
43099;DHT22;28715;51.988;6.020;2023-08-17T06:55:21;19.40;96.30
43099;DHT22;28715;51.988;6.020;2023-08-17T06:57:47;19.50;96.30
43099;DHT22;28715;51.988;6.020;2023-08-17T07:00:15;19.50;96.30
43099;DHT22;28715;51.988;6.020;2023-08-17T07:02:40;19.50;96.60
43099;DHT22;28715;51.988;6.020;2023-08-17T07:05:06;19.60;96.20
43099;DHT22;28715;51.988;6.020;2023-08-17T07:07:31;19.60;96.20
43099;DHT22;28715;51.988;6.020;2023-08-17T07:09:57;19.60;96.20
43099;DHT22;28715;51.988;6.020;2023-08-17T07:12:22;19.60;96.30
43099;DHT22;28715;51.988;6.020;2023-08-17T07:14:49;19.70;96.20
43099;DHT22;28715;51.988;6.020;2023-08-17T07:17:15;19.70;96.00
43099;DHT22;28715;51.988;6.020;2023-08-17T07:19:40;19.70;96.10
43099;DHT22;28715;51.988;6.020;2023-08-17T07:22:06;19.70;96.20
43099;DHT22;28715;51.988;6.020;2023-08-17T07:24:31;19.80;96.20
43099;DHT22;28715;51.988;6.020;2023-08-17T07:26:57;19.80;96.10
43099;DHT22;28715;51.988;6.020;2023-08-17T07:29:25;19.80;96.10
43099;DHT22;28715;51.988;6.020;2023-08-17T07:31:53;19.80;95.90
43099;DHT22;28715;51.988;6.020;2023-08-17T07:34:24;19.90;96.10
43099;DHT22;28715;51.988;6.020;2023-08-17T07:36:49;19.90;96.10
43099;DHT22;28715;51.988;6.020;2023-08-17T07:39:15;19.90;96.30
43099;DHT22;28715;51.988;6.020;2023-08-17T07:41:40;19.90;96.10
43099;DHT22;28715;51.988;6.020;2023-08-17T07:44:06;19.90;96.10
43099;DHT22;28715;51.988;6.020;2023-08-17T07:46:34;20.00;96.10
43099;DHT22;28715;51.988;6.020;2023-08-17T07:49:00;20.00;96.20
43099;DHT22;28715;51.988;6.020;2023-08-17T07:51:26;20.00;96.20
43099;DHT22;28715;51.988;6.020;2023-08-17T07:53:51;20.00;96.00
43099;DHT22;28715;51.988;6.020;2023-08-17T07:56:17;20.00;95.90
43099;DHT22;28715;51.988;6.020;2023-08-17T07:58:42;20.00;95.90
43099;DHT22;28715;51.988;6.020;2023-08-17T08:01:08;19.90;95.90
43099;DHT22;28715;51.988;6.020;2023-08-17T08:03:33;19.90;95.90
43099;DHT22;28715;51.988;6.020;2023-08-17T08:05:59;19.90;96.10
43099;DHT22;28715;51.988;6.020;2023-08-17T08:08:24;19.90;96.10
43099;DHT22;28715;51.988;6.020;2023-08-17T08:10:52;20.00;96.10
43099;DHT22;28715;51.988;6.020;2023-08-17T08:13:17;20.00;96.30
43099;DHT22;28715;51.988;6.020;2023-08-17T08:15:43;20.00;96.20
43099;DHT22;28715;51.988;6.020;2023-08-17T08:18:08;19.90;96.00
43099;DHT22;28715;51.988;6.020;2023-08-17T08:20:34;19.90;96.20
43099;DHT22;28715;51.988;6.020;2023-08-17T08:22:59;19.90;96.10
43099;DHT22;28715;51.988;6.020;2023-08-17T08:25:25;19.90;96.00
43099;DHT22;28715;51.988;6.020;2023-08-17T08:27:50;19.90;96.20
43099;DHT22;28715;51.988;6.020;2023-08-17T08:30:16;19.90;96.30
43099;DHT22;28715;51.988;6.020;2023-08-17T08:32:43;19.90;96.20
43099;DHT22;28715;51.988;6.020;2023-08-17T08:35:09;19.90;96.30
43099;DHT22;28715;51.988;6.020;2023-08-17T08:37:34;19.90;96.40
43099;DHT22;28715;51.988;6.020;2023-08-17T08:40:00;19.90;96.20
43099;DHT22;28715;51.988;6.020;2023-08-17T08:42:25;19.90;96.20
43099;DHT22;28715;51.988;6.020;2023-08-17T08:44:51;19.90;96.30
43099;DHT22;28715;51.988;6.020;2023-08-17T08:47:16;19.90;96.30
43099;DHT22;28715;51.988;6.020;2023-08-17T08:49:46;19.90;96.40
43099;DHT22;28715;51.988;6.020;2023-08-17T08:52:15;19.90;96.60
43099;DHT22;28715;51.988;6.020;2023-08-17T08:54:44;20.00;96.50
43099;DHT22;28715;51.988;6.020;2023-08-17T08:57:12;20.10;96.80
43099;DHT22;28715;51.988;6.020;2023-08-17T08:59:39;20.20;96.60
43099;DHT22;28715;51.988;6.020;2023-08-17T09:02:12;20.30;96.50
43099;DHT22;28715;51.988;6.020;2023-08-17T09:04:39;20.30;96.30
43099;DHT22;28715;51.988;6.020;2023-08-17T09:07:04;20.40;96.20
43099;DHT22;28715;51.988;6.020;2023-08-17T09:09:31;20.40;96.20
43099;DHT22;28715;51.988;6.020;2023-08-17T09:11:56;20.60;96.30
43099;DHT22;28715;51.988;6.020;2023-08-17T09:14:22;20.70;95.90
43099;DHT22;28715;51.988;6.020;2023-08-17T09:16:47;20.80;95.90
43099;DHT22;28715;51.988;6.020;2023-08-17T09:19:13;20.90;95.80
43099;DHT22;28715;51.988;6.020;2023-08-17T09:21:39;21.00;95.80
43099;DHT22;28715;51.988;6.020;2023-08-17T09:24:04;21.10;95.60
43099;DHT22;28715;51.988;6.020;2023-08-17T09:26:32;21.10;95.30
43099;DHT22;28715;51.988;6.020;2023-08-17T09:28:58;21.10;95.20
43099;DHT22;28715;51.988;6.020;2023-08-17T09:31:24;21.00;95.00
43099;DHT22;28715;51.988;6.020;2023-08-17T09:33:50;21.00;95.20
43099;DHT22;28715;51.988;6.020;2023-08-17T09:36:19;20.90;95.20
43099;DHT22;28715;51.988;6.020;2023-08-17T09:38:45;20.90;95.40
43099;DHT22;28715;51.988;6.020;2023-08-17T09:41:13;20.90;95.40
43099;DHT22;28715;51.988;6.020;2023-08-17T09:43:39;21.00;95.40
43099;DHT22;28715;51.988;6.020;2023-08-17T09:46:04;20.90;95.30
43099;DHT22;28715;51.988;6.020;2023-08-17T09:48:30;20.90;95.50
43099;DHT22;28715;51.988;6.020;2023-08-17T09:50:56;20.90;95.60
43099;DHT22;28715;51.988;6.020;2023-08-17T09:53:21;20.90;95.60
43099;DHT22;28715;51.988;6.020;2023-08-17T09:55:47;21.00;95.60
43099;DHT22;28715;51.988;6.020;2023-08-17T09:58:13;21.00;95.50
43099;DHT22;28715;51.988;6.020;2023-08-17T10:00:50;21.00;95.70
43099;DHT22;28715;51.988;6.020;2023-08-17T10:03:16;21.10;96.00
43099;DHT22;28715;51.988;6.020;2023-08-17T10:05:42;21.10;96.10
43099;DHT22;28715;51.988;6.020;2023-08-17T10:08:08;21.20;96.00
43099;DHT22;28715;51.988;6.020;2023-08-17T10:10:35;21.20;95.60
43099;DHT22;28715;51.988;6.020;2023-08-17T10:13:22;21.20;95.60
43099;DHT22;28715;51.988;6.020;2023-08-17T10:15:55;21.20;95.60
43099;DHT22;28715;51.988;6.020;2023-08-17T10:18:35;21.10;95.50
43099;DHT22;28715;51.988;6.020;2023-08-17T10:21:04;21.10;95.80
43099;DHT22;28715;51.988;6.020;2023-08-17T10:23:31;21.10;96.00
43099;DHT22;28715;51.988;6.020;2023-08-17T10:25:57;21.10;95.70
43099;DHT22;28715;51.988;6.020;2023-08-17T10:28:22;21.10;95.90
43099;DHT22;28715;51.988;6.020;2023-08-17T10:30:48;21.10;95.80
43099;DHT22;28715;51.988;6.020;2023-08-17T10:33:14;21.10;95.90
43099;DHT22;28715;51.988;6.020;2023-08-17T10:35:40;21.20;96.00
43099;DHT22;28715;51.988;6.020;2023-08-17T10:38:06;21.20;96.10
43099;DHT22;28715;51.988;6.020;2023-08-17T10:40:35;21.20;96.00
43099;DHT22;28715;51.988;6.020;2023-08-17T10:43:01;21.30;95.70
43099;DHT22;28715;51.988;6.020;2023-08-17T10:45:28;21.20;95.90
43099;DHT22;28715;51.988;6.020;2023-08-17T10:50:28;21.20;96.00
43099;DHT22;28715;51.988;6.020;2023-08-17T10:52:54;21.20;95.70
43099;DHT22;28715;51.988;6.020;2023-08-17T10:58:21;21.20;96.10
43099;DHT22;28715;51.988;6.020;2023-08-17T11:00:46;21.30;96.20
43099;DHT22;28715;51.988;6.020;2023-08-17T11:03:19;21.30;96.10
43099;DHT22;28715;51.988;6.020;2023-08-17T11:05:49;21.30;96.00
43099;DHT22;28715;51.988;6.020;2023-08-17T11:11:11;21.40;96.20
43099;DHT22;28715;51.988;6.020;2023-08-17T11:13:38;21.30;95.80
43099;DHT22;28715;51.988;6.020;2023-08-17T11:16:05;21.40;95.90
43099;DHT22;28715;51.988;6.020;2023-08-17T11:18:31;21.40;95.70
43099;DHT22;28715;51.988;6.020;2023-08-17T11:20:56;21.40;95.80
43099;DHT22;28715;51.988;6.020;2023-08-17T11:23:22;21.40;95.80
43099;DHT22;28715;51.988;6.020;2023-08-17T11:25:49;21.40;96.00
43099;DHT22;28715;51.988;6.020;2023-08-17T11:28:16;21.40;95.90
43099;DHT22;28715;51.988;6.020;2023-08-17T11:30:42;21.40;95.90
43099;DHT22;28715;51.988;6.020;2023-08-17T11:33:08;21.40;95.90
43099;DHT22;28715;51.988;6.020;2023-08-17T11:35:34;21.40;96.10
43099;DHT22;28715;51.988;6.020;2023-08-17T11:38:00;21.50;96.10
43099;DHT22;28715;51.988;6.020;2023-08-17T11:40:26;21.50;95.80
43099;DHT22;28715;51.988;6.020;2023-08-17T11:42:52;21.50;95.60
43099;DHT22;28715;51.988;6.020;2023-08-17T11:45:17;21.50;96.00
43099;DHT22;28715;51.988;6.020;2023-08-17T11:47:43;21.40;95.70
43099;DHT22;28715;51.988;6.020;2023-08-17T11:50:12;21.40;95.80
43099;DHT22;28715;51.988;6.020;2023-08-17T11:52:37;21.40;96.00
43099;DHT22;28715;51.988;6.020;2023-08-17T11:55:04;21.40;96.20
43099;DHT22;28715;51.988;6.020;2023-08-17T11:57:31;21.40;96.20
43099;DHT22;28715;51.988;6.020;2023-08-17T11:59:57;21.40;96.40
43099;DHT22;28715;51.988;6.020;2023-08-17T12:02:23;21.40;96.40
43099;DHT22;28715;51.988;6.020;2023-08-17T12:04:49;21.40;96.30
43099;DHT22;28715;51.988;6.020;2023-08-17T12:07:15;21.40;96.40
43099;DHT22;28715;51.988;6.020;2023-08-17T12:09:43;21.40;96.50
43099;DHT22;28715;51.988;6.020;2023-08-17T12:12:09;21.40;96.70
43099;DHT22;28715;51.988;6.020;2023-08-17T12:14:35;21.40;96.40
43099;DHT22;28715;51.988;6.020;2023-08-17T12:17:00;21.40;96.40
43099;DHT22;28715;51.988;6.020;2023-08-17T12:19:26;21.40;96.40
43099;DHT22;28715;51.988;6.020;2023-08-17T12:21:51;21.50;96.30
43099;DHT22;28715;51.988;6.020;2023-08-17T12:24:17;21.50;96.30
43099;DHT22;28715;51.988;6.020;2023-08-17T12:26:45;21.50;96.60
43099;DHT22;28715;51.988;6.020;2023-08-17T12:29:11;21.60;96.60
43099;DHT22;28715;51.988;6.020;2023-08-17T12:31:37;21.60;96.30
43099;DHT22;28715;51.988;6.020;2023-08-17T12:34:03;21.70;96.30
43099;DHT22;28715;51.988;6.020;2023-08-17T12:36:30;21.70;96.20
43099;DHT22;28715;51.988;6.020;2023-08-17T12:38:56;21.70;96.20
43099;DHT22;28715;51.988;6.020;2023-08-17T12:41:22;21.70;96.20
43099;DHT22;28715;51.988;6.020;2023-08-17T12:43:47;21.70;96.20
43099;DHT22;28715;51.988;6.020;2023-08-17T12:46:13;21.70;96.00
43099;DHT22;28715;51.988;6.020;2023-08-17T12:48:38;21.70;96.00
43099;DHT22;28715;51.988;6.020;2023-08-17T12:51:04;21.80;96.30
43099;DHT22;28715;51.988;6.020;2023-08-17T12:53:29;21.80;96.40
43099;DHT22;28715;51.988;6.020;2023-08-17T12:55:55;21.90;96.30
43099;DHT22;28715;51.988;6.020;2023-08-17T12:58:20;21.80;95.90
43099;DHT22;28715;51.988;6.020;2023-08-17T13:00:46;21.80;95.80
43099;DHT22;28715;51.988;6.020;2023-08-17T13:03:11;21.80;95.70
43099;DHT22;28715;51.988;6.020;2023-08-17T13:05:37;21.80;96.10
43099;DHT22;28715;51.988;6.020;2023-08-17T13:08:03;21.80;96.20
43099;DHT22;28715;51.988;6.020;2023-08-17T13:10:28;21.90;96.30
43099;DHT22;28715;51.988;6.020;2023-08-17T13:12:54;21.80;96.30
43099;DHT22;28715;51.988;6.020;2023-08-17T13:15:22;21.90;96.20
43099;DHT22;28715;51.988;6.020;2023-08-17T13:17:47;21.90;96.20
43099;DHT22;28715;51.988;6.020;2023-08-17T13:20:13;21.90;96.20
43099;DHT22;28715;51.988;6.020;2023-08-17T13:22:38;21.90;96.10
43099;DHT22;28715;51.988;6.020;2023-08-17T13:25:04;21.90;96.20
43099;DHT22;28715;51.988;6.020;2023-08-17T13:27:30;21.90;96.50
43099;DHT22;28715;51.988;6.020;2023-08-17T13:29:55;21.90;96.40
43099;DHT22;28715;51.988;6.020;2023-08-17T13:32:21;21.90;96.50
43099;DHT22;28715;51.988;6.020;2023-08-17T13:34:46;22.00;96.40
43099;DHT22;28715;51.988;6.020;2023-08-17T13:37:14;22.00;96.40
43099;DHT22;28715;51.988;6.020;2023-08-17T13:39:39;22.00;96.40
43099;DHT22;28715;51.988;6.020;2023-08-17T13:42:06;22.00;96.50
43099;DHT22;28715;51.988;6.020;2023-08-17T13:44:34;22.00;96.60
43099;DHT22;28715;51.988;6.020;2023-08-17T13:47:15;22.00;96.60
43099;DHT22;28715;51.988;6.020;2023-08-17T13:49:41;22.00;96.60
43099;DHT22;28715;51.988;6.020;2023-08-17T13:52:21;22.00;96.50
43099;DHT22;28715;51.988;6.020;2023-08-17T13:55:06;22.00;96.40
43099;DHT22;28715;51.988;6.020;2023-08-17T13:57:42;21.90;96.50
43099;DHT22;28715;51.988;6.020;2023-08-17T14:03:29;21.80;96.60
43099;DHT22;28715;51.988;6.020;2023-08-17T14:09:09;21.90;96.50
43099;DHT22;28715;51.988;6.020;2023-08-17T14:11:38;21.90;96.60
43099;DHT22;28715;51.988;6.020;2023-08-17T14:14:13;21.90;96.70
43099;DHT22;28715;51.988;6.020;2023-08-17T14:16:45;21.90;96.70
43099;DHT22;28715;51.988;6.020;2023-08-17T14:19:23;21.90;96.50
43099;DHT22;28715;51.988;6.020;2023-08-17T14:21:51;22.00;96.60
43099;DHT22;28715;51.988;6.020;2023-08-17T14:24:26;22.00;96.50
43099;DHT22;28715;51.988;6.020;2023-08-17T14:26:52;21.90;96.40
43099;DHT22;28715;51.988;6.020;2023-08-17T14:29:24;21.90;96.30
43099;DHT22;28715;51.988;6.020;2023-08-17T14:31:52;21.90;96.50
43099;DHT22;28715;51.988;6.020;2023-08-17T14:34:18;21.80;96.50
43099;DHT22;28715;51.988;6.020;2023-08-17T14:36:44;21.80;96.50
43099;DHT22;28715;51.988;6.020;2023-08-17T14:39:10;21.80;96.60
43099;DHT22;28715;51.988;6.020;2023-08-17T14:41:35;21.70;96.60
43099;DHT22;28715;51.988;6.020;2023-08-17T14:44:01;21.70;96.70
43099;DHT22;28715;51.988;6.020;2023-08-17T14:46:26;21.70;96.80
43099;DHT22;28715;51.988;6.020;2023-08-17T14:48:58;21.80;97.00
43099;DHT22;28715;51.988;6.020;2023-08-17T14:51:24;21.80;97.10
43099;DHT22;28715;51.988;6.020;2023-08-17T14:53:50;21.80;97.00
43099;DHT22;28715;51.988;6.020;2023-08-17T14:56:15;21.80;97.00
43099;DHT22;28715;51.988;6.020;2023-08-17T14:58:40;21.90;97.10
43099;DHT22;28715;51.988;6.020;2023-08-17T15:01:06;22.00;97.00
43099;DHT22;28715;51.988;6.020;2023-08-17T15:03:31;22.00;97.00
43099;DHT22;28715;51.988;6.020;2023-08-17T15:05:57;22.10;97.00
43099;DHT22;28715;51.988;6.020;2023-08-17T15:08:22;22.10;97.10
43099;DHT22;28715;51.988;6.020;2023-08-17T15:10:48;22.20;97.10
43099;DHT22;28715;51.988;6.020;2023-08-17T15:13:14;22.20;97.00
43099;DHT22;28715;51.988;6.020;2023-08-17T15:15:40;22.20;96.90
43099;DHT22;28715;51.988;6.020;2023-08-17T15:18:06;22.20;96.80
43099;DHT22;28715;51.988;6.020;2023-08-17T15:20:31;22.20;96.80
43099;DHT22;28715;51.988;6.020;2023-08-17T15:22:57;22.30;96.60
43099;DHT22;28715;51.988;6.020;2023-08-17T15:25:22;22.30;96.50
43099;DHT22;28715;51.988;6.020;2023-08-17T15:27:55;22.20;96.40
43099;DHT22;28715;51.988;6.020;2023-08-17T15:30:21;22.20;96.40
43099;DHT22;28715;51.988;6.020;2023-08-17T15:32:46;22.20;96.60
43099;DHT22;28715;51.988;6.020;2023-08-17T15:35:12;22.30;96.60
43099;DHT22;28715;51.988;6.020;2023-08-17T15:37:40;22.30;96.60
43099;DHT22;28715;51.988;6.020;2023-08-17T15:40:06;22.30;96.80